createdAt,value
2019-01-03T00:02:49.348Z,2.20
2019-01-03T00:05:42.997Z,1.83
2019-01-03T00:08:32.705Z,2.33
2019-01-03T00:11:26.588Z,1.97
2019-01-03T00:14:13.495Z,1.47
2019-01-03T00:17:07.090Z,2.80
2019-01-03T00:19:53.543Z,2.37
2019-01-03T00:22:40.034Z,1.90
2019-01-03T00:25:43.894Z,2.27
2019-01-03T00:28:37.097Z,1.67
2019-01-03T00:31:30.754Z,1.63
2019-01-03T00:34:17.262Z,1.50
2019-01-03T00:37:17.251Z,2.30
2019-01-03T00:39:53.273Z,1.40
2019-01-03T00:42:34.029Z,1.93
2019-01-03T00:45:21.560Z,1.23
2019-01-03T00:48:24.222Z,1.93
2019-01-03T00:51:10.029Z,2.10
2019-01-03T00:53:56.177Z,2.20
2019-01-03T00:56:42.681Z,2.30
2019-01-03T00:59:29.203Z,2.13
2019-01-03T01:02:15.669Z,1.37
2019-01-03T01:05:15.518Z,1.87
2019-01-03T01:08:07.661Z,1.83
2019-01-03T01:11:07.394Z,1.53
2019-01-03T01:14:13.966Z,2.10
2019-01-03T01:16:56.177Z,1.67
2019-01-03T01:19:46.595Z,1.83
2019-01-03T01:22:34.120Z,1.90
2019-01-03T01:25:20.770Z,1.37
2019-01-03T01:28:08.542Z,1.17
2019-01-03T01:31:14.479Z,1.47
2019-01-03T01:33:59.173Z,1.70
2019-01-03T01:36:53.745Z,1.20
2019-01-03T01:39:47.220Z,1.47
2019-01-03T01:42:27.714Z,1.50
2019-01-03T01:45:18.407Z,1.27
2019-01-03T01:48:18.102Z,0.93
2019-01-03T01:51:04.893Z,1.00
2019-01-03T01:53:52.385Z,1.17
2019-01-03T01:56:38.607Z,1.20
2019-01-03T01:59:37.954Z,1.53
2019-01-03T02:02:24.463Z,0.83
2019-01-03T02:05:30.616Z,1.60
2019-01-03T02:08:24.155Z,1.13
2019-01-03T02:11:14.592Z,1.00
2019-01-03T02:14:08.094Z,1.03
2019-01-03T02:16:52.505Z,1.90
2019-01-03T02:19:38.966Z,0.80
2019-01-03T02:22:32.646Z,1.20
2019-01-03T02:25:24.712Z,1.33
2019-01-03T02:28:11.233Z,1.10
2019-01-03T02:31:12.351Z,0.67
2019-01-03T02:33:59.074Z,0.80
2019-01-03T02:37:05.099Z,0.80
2019-01-03T02:39:55.087Z,0.77
2019-01-03T02:42:48.811Z,1.00
2019-01-03T02:45:41.185Z,0.80
2019-01-03T02:48:35.001Z,0.90
2019-01-03T02:51:21.834Z,1.27
2019-01-03T02:54:07.189Z,1.43
2019-01-03T02:56:53.780Z,1.13
2019-01-03T02:59:41.353Z,0.77
2019-01-03T03:02:32.465Z,0.97
2019-01-03T03:05:19.030Z,1.43
2019-01-03T03:08:21.973Z,1.40
2019-01-03T03:11:18.449Z,0.80
2019-01-03T03:14:04.786Z,1.10
2019-01-03T03:16:51.398Z,1.13
2019-01-03T03:19:33.217Z,1.30
2019-01-03T03:22:29.680Z,0.90
2019-01-03T03:25:20.638Z,0.57
2019-01-03T03:28:23.593Z,0.40
2019-01-03T03:31:13.984Z,0.70
2019-01-03T03:34:00.357Z,0.80
2019-01-03T03:37:03.378Z,1.10
2019-01-03T03:39:48.534Z,0.57
2019-01-03T03:42:40.403Z,0.70
2019-01-03T03:45:40.110Z,0.50
2019-01-03T03:48:26.298Z,0.77
2019-01-03T03:51:13.878Z,1.03
2019-01-03T03:53:53.491Z,1.23
2019-01-03T03:56:37.046Z,0.33
2019-01-03T03:59:33.858Z,0.43
2019-01-03T04:02:30.726Z,0.23
2019-01-03T04:05:15.060Z,0.30
2019-01-03T04:08:02.590Z,0.33
2019-01-03T04:10:49.008Z,0.57
2019-01-03T04:13:36.502Z,0.20
2019-01-03T04:16:17.449Z,0.67
2019-01-03T04:19:10.153Z,0.40
2019-01-03T04:21:58.954Z,0.30
2019-01-03T04:24:45.174Z,0.27
2019-01-03T04:27:30.622Z,0.47
2019-01-03T04:30:26.374Z,0.50
2019-01-03T04:33:21.010Z,0.43
2019-01-03T04:35:59.580Z,0.63
2019-01-03T04:38:59.322Z,0.17
2019-01-03T04:41:45.381Z,0.47
2019-01-03T04:44:23.390Z,0.73
2019-01-03T04:47:02.398Z,0.60
2019-01-03T04:49:52.727Z,0.97
2019-01-03T04:52:30.803Z,0.77
2019-01-03T04:55:21.409Z,0.23
2019-01-03T04:58:04.621Z,0.40
2019-01-03T05:00:51.655Z,0.47
2019-01-03T05:03:38.989Z,0.20
2019-01-03T05:06:35.733Z,0.60
2019-01-03T05:09:30.755Z,0.43
2019-01-03T05:12:18.830Z,0.30
2019-01-03T05:14:59.914Z,0.20
2019-01-03T05:18:00.171Z,0.40
2019-01-03T05:20:44.937Z,0.70
2019-01-03T05:23:31.422Z,0.30
2019-01-03T05:26:18.965Z,0.20
2019-01-03T05:29:05.423Z,0.33
2019-01-03T05:31:51.772Z,0.30
2019-01-03T05:34:42.434Z,0.00
2019-01-03T05:37:29.997Z,0.20
2019-01-03T05:40:20.683Z,0.30
2019-01-03T05:43:02.201Z,0.40
2019-01-03T05:45:58.687Z,0.40
2019-01-03T05:48:45.058Z,0.20
2019-01-03T05:51:31.575Z,0.20
2019-01-03T05:54:19.316Z,0.40
2019-01-03T05:57:06.195Z,0.23
2019-01-03T05:59:51.470Z,0.60
2019-01-03T06:02:33.565Z,0.30
2019-01-03T06:05:33.439Z,0.60
2019-01-03T06:08:21.199Z,0.40
2019-01-03T06:11:11.738Z,0.10
2019-01-03T06:14:04.633Z,0.30
2019-01-03T06:16:55.282Z,0.33
2019-01-03T06:19:42.761Z,0.10
2019-01-03T06:22:23.865Z,0.20
2019-01-03T06:25:11.356Z,0.20
2019-01-03T06:27:58.849Z,0.30
2019-01-03T06:30:45.501Z,0.53
2019-01-03T06:33:31.966Z,0.57
2019-01-03T06:36:18.506Z,0.10
2019-01-03T06:39:04.830Z,0.30
2019-01-03T06:42:02.002Z,0.10
2019-01-03T06:44:48.553Z,0.10
2019-01-03T06:47:48.445Z,0.37
2019-01-03T06:50:42.757Z,0.30
2019-01-03T06:53:28.889Z,0.30
2019-01-03T06:56:15.365Z,0.17
2019-01-03T06:59:06.222Z,0.40
2019-01-03T07:01:46.178Z,0.30
2019-01-03T07:04:51.867Z,0.10
2019-01-03T07:07:40.769Z,0.47
2019-01-03T07:10:27.225Z,0.10
2019-01-03T07:13:11.757Z,0.10
2019-01-03T07:15:55.810Z,0.10
2019-01-03T07:18:55.294Z,0.30
2019-01-03T07:21:37.099Z,0.20
2019-01-03T07:24:23.462Z,0.50
2019-01-03T07:27:11.317Z,0.37
2019-01-03T07:30:01.702Z,0.30
2019-01-03T07:32:52.101Z,0.10
2019-01-03T07:35:48.839Z,0.60
2019-01-03T07:38:51.561Z,0.10
2019-01-03T07:41:39.041Z,0.30
2019-01-03T07:44:26.539Z,0.20
2019-01-03T07:47:32.495Z,0.30
2019-01-03T07:50:18.605Z,0.57
2019-01-03T07:53:13.992Z,0.10
2019-01-03T07:56:00.417Z,0.50
2019-01-03T07:59:04.217Z,0.20
2019-01-03T08:01:50.357Z,0.03
2019-01-03T08:04:36.880Z,0.40
2019-01-03T08:07:33.649Z,0.20
2019-01-03T08:10:27.973Z,0.20
2019-01-03T08:13:14.279Z,0.20
2019-01-03T08:15:53.018Z,0.23
2019-01-03T08:18:30.879Z,0.67
2019-01-03T08:21:33.563Z,0.40
2019-01-03T08:24:19.662Z,0.03
2019-01-03T08:27:11.277Z,0.40
2019-01-03T08:29:55.505Z,0.73
2019-01-03T08:32:41.838Z,0.20
2019-01-03T08:35:28.319Z,0.40
2019-01-03T08:38:22.006Z,0.30
2019-01-03T08:41:08.217Z,0.23
2019-01-03T08:44:04.785Z,0.20
2019-01-03T08:46:52.269Z,0.40
2019-01-03T08:49:39.790Z,0.27
2019-01-03T08:52:33.613Z,0.30
2019-01-03T08:55:23.050Z,0.40
2019-01-03T08:58:06.455Z,0.27
2019-01-03T09:00:58.510Z,0.50
2019-01-03T09:03:44.611Z,0.47
2019-01-03T09:06:47.341Z,0.67
2019-01-03T09:09:33.479Z,0.40
2019-01-03T09:12:25.454Z,0.80
2019-01-03T09:15:21.998Z,0.50
2019-01-03T09:18:24.618Z,0.70
2019-01-03T09:21:18.043Z,0.40
2019-01-03T09:24:04.419Z,0.20
2019-01-03T09:26:51.937Z,0.50
2019-01-03T09:29:38.245Z,0.20
2019-01-03T09:32:44.151Z,0.57
2019-01-03T09:35:30.384Z,0.33
2019-01-03T09:38:08.678Z,0.47
2019-01-03T09:41:06.709Z,0.80
2019-01-03T09:44:09.601Z,0.70
2019-01-03T09:46:38.192Z,0.60
2019-01-03T09:49:06.502Z,0.40
2019-01-03T09:51:35.011Z,0.53
2019-01-03T09:54:03.395Z,0.30
2019-01-03T09:56:31.845Z,0.40
2019-01-03T09:59:00.169Z,0.77
2019-01-03T10:01:28.557Z,0.80
2019-01-03T10:03:56.898Z,0.57
2019-01-03T10:06:25.358Z,0.50
2019-01-03T10:08:53.663Z,0.40
2019-01-03T10:11:21.978Z,0.80
2019-01-03T10:13:50.305Z,1.17
2019-01-03T10:16:18.721Z,0.40
2019-01-03T10:18:47.038Z,0.63
2019-01-03T10:21:15.429Z,0.60
2019-01-03T10:23:43.849Z,0.63
2019-01-03T10:26:12.209Z,1.10
2019-01-03T10:28:40.566Z,0.57
2019-01-03T10:31:08.869Z,0.87
2019-01-03T10:33:37.211Z,0.30
2019-01-03T10:36:05.565Z,0.73
2019-01-03T10:38:33.925Z,0.73
2019-01-03T10:41:02.361Z,0.77
2019-01-03T10:43:30.660Z,1.10
2019-01-03T10:45:58.977Z,0.77
2019-01-03T10:48:27.282Z,0.30
2019-01-03T10:50:55.753Z,0.70
2019-01-03T10:53:24.062Z,1.33
2019-01-03T10:55:52.370Z,0.40
2019-01-03T10:58:20.713Z,0.50
2019-01-03T11:00:49.085Z,0.70
2019-01-03T11:03:17.397Z,0.40
2019-01-03T11:05:45.834Z,0.70
2019-01-03T11:08:14.241Z,0.37
2019-01-03T11:10:42.539Z,0.70
2019-01-03T11:13:10.858Z,0.60
2019-01-03T11:15:39.170Z,0.23
2019-01-03T11:18:08.374Z,0.50
2019-01-03T11:20:37.109Z,0.30
2019-01-03T11:23:05.438Z,0.30
2019-01-03T11:25:33.822Z,0.80
2019-01-03T11:28:02.148Z,0.50
2019-01-03T11:30:30.536Z,0.27
2019-01-03T11:32:58.946Z,0.23
2019-01-03T11:35:27.257Z,0.50
2019-01-03T11:37:55.566Z,0.30
2019-01-03T11:40:23.913Z,0.37
2019-01-03T11:42:52.241Z,0.80
2019-01-03T11:45:20.624Z,0.47
2019-01-03T11:47:49.026Z,0.47
2019-01-03T11:50:17.453Z,0.53
2019-01-03T11:52:45.817Z,0.37
2019-01-03T11:55:14.161Z,0.30
2019-01-03T11:57:42.457Z,0.57
2019-01-03T12:00:10.854Z,0.40
2019-01-03T12:02:39.245Z,0.70
2019-01-03T12:05:08.072Z,0.43
2019-01-03T12:07:36.420Z,0.20
2019-01-03T12:10:04.810Z,0.47
2019-01-03T12:12:33.115Z,0.63
2019-01-03T12:15:01.466Z,0.50
2019-01-03T12:17:30.065Z,0.57
2019-01-03T12:19:58.421Z,0.50
2019-01-03T12:22:26.857Z,0.30
2019-01-03T12:24:55.215Z,0.93
2019-01-03T12:27:23.818Z,0.60
2019-01-03T12:29:52.161Z,0.40
2019-01-03T12:32:20.470Z,0.77
2019-01-03T12:34:48.796Z,0.47
2019-01-03T12:37:17.130Z,0.50
2019-01-03T12:39:45.761Z,0.50
2019-01-03T12:42:14.189Z,0.30
2019-01-03T12:44:42.582Z,0.80
2019-01-03T12:47:10.875Z,0.43
2019-01-03T12:49:39.294Z,0.43
2019-01-03T12:52:07.723Z,0.73
2019-01-03T12:54:36.133Z,0.20
2019-01-03T12:57:04.425Z,0.57
2019-01-03T12:59:32.795Z,0.43
2019-01-03T13:02:01.214Z,1.00
2019-01-03T13:04:29.526Z,0.43
2019-01-03T13:06:57.837Z,0.40
2019-01-03T13:09:26.377Z,0.50
2019-01-03T13:11:54.793Z,0.40
2019-01-03T13:14:23.082Z,0.57
2019-01-03T13:16:51.398Z,0.40
2019-01-03T13:19:19.755Z,0.50
2019-01-03T13:21:48.126Z,0.50
2019-01-03T13:24:16.545Z,0.27
2019-01-03T13:26:44.894Z,0.30
2019-01-03T13:29:13.201Z,0.47
2019-01-03T13:31:41.543Z,0.43
2019-01-03T13:34:10.131Z,0.50
2019-01-03T13:36:38.461Z,0.33
2019-01-03T13:39:07.537Z,0.33
2019-01-03T13:41:35.846Z,0.27
2019-01-03T13:44:04.269Z,0.27
2019-01-03T13:46:32.621Z,0.20
2019-01-03T13:49:00.970Z,0.20
2019-01-03T13:51:29.274Z,0.20
2019-01-03T13:53:57.977Z,0.17
2019-01-03T13:56:26.526Z,0.13
2019-01-03T13:58:55.142Z,0.63
2019-01-03T14:01:23.510Z,0.13
2019-01-03T14:03:51.838Z,0.47
2019-01-03T14:06:20.502Z,0.47
2019-01-03T14:08:48.817Z,0.30
2019-01-03T14:11:17.154Z,0.50
2019-01-03T14:13:45.460Z,0.30
2019-01-03T14:16:13.782Z,0.20
2019-01-03T14:18:42.201Z,0.50
2019-01-03T14:21:10.781Z,0.30
2019-01-03T14:23:39.097Z,0.60
2019-01-03T14:26:07.409Z,0.30
2019-01-03T14:28:35.770Z,0.30
2019-01-03T14:31:04.292Z,0.57
2019-01-03T14:33:32.638Z,0.40
2019-01-03T14:36:00.972Z,0.80
2019-01-03T14:38:29.390Z,0.50
2019-01-03T14:40:57.746Z,0.60
2019-01-03T14:43:26.086Z,0.30
2019-01-03T14:45:54.389Z,0.50
2019-01-03T14:48:22.804Z,0.67
2019-01-03T14:50:51.097Z,0.70
2019-01-03T14:53:19.431Z,0.80
2019-01-03T14:55:47.741Z,0.77
2019-01-03T14:58:16.065Z,0.40
2019-01-03T15:00:44.418Z,0.63
2019-01-03T15:03:12.915Z,0.50
2019-01-03T15:05:41.277Z,0.40
2019-01-03T15:08:09.630Z,0.37
2019-01-03T15:10:38.020Z,0.33
2019-01-03T15:13:06.342Z,0.47
2019-01-03T15:15:34.950Z,0.80
2019-01-03T15:18:03.358Z,0.57
2019-01-03T15:20:31.702Z,0.40
2019-01-03T15:23:00.005Z,0.50
2019-01-03T15:25:28.443Z,0.60
2019-01-03T15:27:56.741Z,0.47
2019-01-03T15:30:25.103Z,0.53
2019-01-03T15:32:53.486Z,0.67
2019-01-03T15:35:21.949Z,0.30
2019-01-03T15:37:50.462Z,0.67
2019-01-03T15:40:18.773Z,0.70
2019-01-03T15:42:47.139Z,0.43
2019-01-03T15:45:15.449Z,0.90
2019-01-03T15:47:43.780Z,0.57
2019-01-03T15:50:12.197Z,0.60
2019-01-03T15:52:40.569Z,0.60
2019-01-03T15:55:08.873Z,0.70
2019-01-03T15:57:37.266Z,0.90
2019-01-03T16:00:06.323Z,0.60
2019-01-03T16:02:34.633Z,0.90
2019-01-03T16:05:02.937Z,0.67
2019-01-03T16:07:35.533Z,0.75
2019-01-03T16:10:04.000Z,0.83
2019-01-03T16:12:32.333Z,1.20
2019-01-03T16:15:00.966Z,1.07
2019-01-03T16:17:51.478Z,1.17
2019-01-03T16:20:19.861Z,1.27
2019-01-03T16:22:51.682Z,1.40
2019-01-03T16:25:25.229Z,1.17
2019-01-03T16:27:58.786Z,1.20
2019-01-03T16:30:27.144Z,1.30
2019-01-03T16:32:55.573Z,2.27
2019-01-03T16:35:23.945Z,2.27
2019-01-03T16:37:52.337Z,1.80
2019-01-03T16:40:20.734Z,1.63
2019-01-03T16:42:49.193Z,2.10
2019-01-03T16:45:18.449Z,2.07
2019-01-03T16:47:46.929Z,1.50
2019-01-03T16:50:16.181Z,1.67
2019-01-03T16:52:46.901Z,1.77
2019-01-03T16:55:15.430Z,1.70
2019-01-03T16:57:43.817Z,1.27
2019-01-03T17:00:12.699Z,1.30
2019-01-03T17:02:41.106Z,1.67
2019-01-03T17:05:09.521Z,1.80
2019-01-03T17:07:37.897Z,1.50
2019-01-03T17:10:16.081Z,1.27
2019-01-03T17:12:44.497Z,1.30
2019-01-03T17:15:12.865Z,1.37
2019-01-03T17:17:41.233Z,1.43
2019-01-03T17:20:15.789Z,1.20
2019-01-03T17:22:44.141Z,1.30
2019-01-03T17:25:12.977Z,1.10
2019-01-03T17:27:41.293Z,1.27
2019-01-03T17:30:10.361Z,0.90
2019-01-03T17:32:38.685Z,1.70
2019-01-03T17:35:07.722Z,1.23
2019-01-03T17:37:36.080Z,1.40
2019-01-03T17:40:04.805Z,1.77
2019-01-03T17:42:34.597Z,1.73
2019-01-03T17:45:09.053Z,1.63
2019-01-03T17:47:37.383Z,1.63
2019-01-03T17:50:06.246Z,1.70
2019-01-03T17:52:34.673Z,4.03
2019-01-03T17:55:03.224Z,2.10
2019-01-03T17:57:31.718Z,2.20
2019-01-03T18:00:00.038Z,2.73
2019-01-03T18:02:47.739Z,2.03
2019-01-03T18:05:16.291Z,1.97
2019-01-03T18:07:44.598Z,1.90
2019-01-03T18:10:16.429Z,1.67
2019-01-03T18:12:49.453Z,2.00
2019-01-03T18:15:17.818Z,2.43
2019-01-03T18:17:46.210Z,2.40
2019-01-03T18:20:15.650Z,1.90
2019-01-03T18:22:44.091Z,2.87
2019-01-03T18:25:12.777Z,2.10
2019-01-03T18:27:41.134Z,1.97
2019-01-03T18:30:10.233Z,1.87
2019-01-03T18:32:38.822Z,1.73
2019-01-03T18:35:07.209Z,1.63
2019-01-03T18:37:35.601Z,1.23
2019-01-03T18:40:04.226Z,1.27
2019-01-03T18:42:32.593Z,2.27
2019-01-03T18:45:01.185Z,2.13
2019-01-03T18:47:29.598Z,1.50
2019-01-03T18:49:57.968Z,1.53
2019-01-03T18:52:26.275Z,1.63
2019-01-03T18:54:54.624Z,1.53
2019-01-03T18:57:23.045Z,1.43
2019-01-03T18:59:51.407Z,2.30
2019-01-03T19:02:19.734Z,1.27
2019-01-03T19:04:48.279Z,1.70
2019-01-03T19:07:35.810Z,1.73
2019-01-03T19:10:05.064Z,1.87
2019-01-03T19:12:33.499Z,1.40
2019-01-03T19:15:01.830Z,1.70
2019-01-03T19:17:30.278Z,1.90
2019-01-03T19:19:58.590Z,1.60
2019-01-03T19:22:26.977Z,1.53
2019-01-03T19:24:55.371Z,1.63
2019-01-03T19:27:23.785Z,1.90
2019-01-03T19:29:52.119Z,1.90
2019-01-03T19:32:20.457Z,1.93
2019-01-03T19:34:49.041Z,1.73
2019-01-03T19:37:17.413Z,1.90
2019-01-03T19:39:45.766Z,1.70
2019-01-03T19:42:14.144Z,1.43
2019-01-03T19:44:42.498Z,1.93
2019-01-03T19:47:11.001Z,1.83
2019-01-03T19:49:39.393Z,1.90
2019-01-03T19:52:08.010Z,1.67
2019-01-03T19:54:36.556Z,2.50
2019-01-03T19:57:05.137Z,2.10
2019-01-03T19:59:33.554Z,1.87
2019-01-03T20:02:02.538Z,1.70
2019-01-03T20:04:31.043Z,1.43
2019-01-03T20:06:59.624Z,2.10
2019-01-03T20:09:28.505Z,1.93
2019-01-03T20:11:56.880Z,1.77
2019-01-03T20:14:25.312Z,2.20
2019-01-03T20:16:53.781Z,1.90
2019-01-03T20:19:22.315Z,1.83
2019-01-03T20:21:53.409Z,1.90
2019-01-03T20:24:22.054Z,2.07
2019-01-03T20:26:50.469Z,1.73
2019-01-03T20:29:18.857Z,1.67
2019-01-03T20:31:47.181Z,1.80
2019-01-03T20:34:15.511Z,2.10
2019-01-03T20:36:43.881Z,2.07
2019-01-03T20:39:12.207Z,2.20
2019-01-03T20:41:40.847Z,2.03
2019-01-03T20:44:09.203Z,2.10
2019-01-03T20:46:43.598Z,1.93
2019-01-03T20:49:18.027Z,1.97
2019-01-03T20:51:46.402Z,1.70
2019-01-03T20:54:14.809Z,2.60
2019-01-03T20:56:43.297Z,2.30
2019-01-03T20:59:11.706Z,2.83
2019-01-03T21:01:40.164Z,2.20
2019-01-03T21:04:08.489Z,2.17
2019-01-03T21:06:36.817Z,1.87
2019-01-03T21:09:05.141Z,1.97
2019-01-03T21:11:33.512Z,1.90
2019-01-03T21:14:02.005Z,1.87
2019-01-03T21:16:30.486Z,2.00
2019-01-03T21:18:58.805Z,2.30
2019-01-03T21:21:27.203Z,2.07
2019-01-03T21:23:55.570Z,2.10
2019-01-03T21:26:23.933Z,2.40
2019-01-03T21:28:52.262Z,2.50
2019-01-03T21:31:20.609Z,2.30
2019-01-03T21:33:48.981Z,3.03
2019-01-03T21:36:17.317Z,2.73
2019-01-03T21:38:45.617Z,2.67
2019-01-03T21:41:14.050Z,2.40
2019-01-03T21:43:42.369Z,2.63
2019-01-03T21:46:10.744Z,3.20
2019-01-03T21:48:39.125Z,2.43
2019-01-03T21:51:07.534Z,2.90
2019-01-03T21:53:35.959Z,3.37
2019-01-03T21:56:04.297Z,2.57
2019-01-03T21:58:32.610Z,3.17
2019-01-03T22:01:00.996Z,2.47
2019-01-03T22:03:29.423Z,2.87
2019-01-03T22:05:57.879Z,2.27
2019-01-03T22:08:26.230Z,2.63
2019-01-03T22:10:54.547Z,2.83
2019-01-03T22:13:22.881Z,3.30
2019-01-03T22:15:51.197Z,2.07
2019-01-03T22:18:19.605Z,1.87
2019-01-03T22:20:47.978Z,2.57
2019-01-03T22:23:16.338Z,2.70
2019-01-03T22:25:44.725Z,2.67
2019-01-03T22:28:13.245Z,2.33
2019-01-03T22:30:41.943Z,1.90
2019-01-03T22:33:10.313Z,2.70
2019-01-03T22:35:38.975Z,2.07
2019-01-03T22:38:07.406Z,2.40
2019-01-03T22:40:35.759Z,1.80
2019-01-03T22:43:04.065Z,2.23
2019-01-03T22:45:32.386Z,1.90
2019-01-03T22:48:00.804Z,2.17
2019-01-03T22:50:29.098Z,2.10
2019-01-03T22:52:57.474Z,2.80
2019-01-03T22:55:25.889Z,2.50
2019-01-03T22:57:54.299Z,2.60
2019-01-03T23:00:26.974Z,1.80
2019-01-03T23:02:55.818Z,1.97
2019-01-03T23:05:24.256Z,1.57
2019-01-03T23:07:52.877Z,2.33
2019-01-03T23:10:21.259Z,2.63
2019-01-03T23:12:49.665Z,2.47
2019-01-03T23:15:18.041Z,2.30
2019-01-03T23:17:46.441Z,2.03
2019-01-03T23:20:14.807Z,2.07
2019-01-03T23:22:43.122Z,2.43
2019-01-03T23:25:11.465Z,1.90
2019-01-03T23:27:39.797Z,1.97
2019-01-03T23:30:08.481Z,1.87
2019-01-03T23:32:36.802Z,2.03
2019-01-03T23:35:05.881Z,2.07
2019-01-03T23:37:34.201Z,1.67
2019-01-03T23:40:02.575Z,1.73
2019-01-03T23:42:30.873Z,1.43
2019-01-03T23:45:24.317Z,1.77
2019-01-03T23:47:53.641Z,2.43
2019-01-03T23:50:23.501Z,1.83
2019-01-03T23:52:51.819Z,1.70
2019-01-03T23:55:20.661Z,1.63
2019-01-03T23:57:49.028Z,2.83
